Los Ebanos, TX

4:53 PM CDT en Abril 28, 2017 (GMT -0500)
Gustavo Diaz Ordaz, Tamps | | Change Station

Alt 151 ft 26.24 °N, 98.60 °W | Updated 10 minutes ago

Despejado
Despejado
96.7 ° F
Sensación térmica 108 ° F
N
12.0
Viento Variable Viento desde ESE
Gusts 18.0 mph

Hoy
Alta -- | Baja -- ° F
--% Posibilidad de precipitaciones
Ayer
Alta -- | Baja -- ° F
Precip. -- pul
Presión 29.49 pul
Visibilidad 9.0 Millas
Nubes Despejado
Índice de calor 108 ° F
Punto de rocío 74 ° F
Humedad 48%
Precipitaciones 0.00 pul
Espesor de la nieve No disponible.
6:58 AM 8:04 PM
Creciente, 9% visible
METAR KMFE 282053Z 14017G30KT 9SM CLR 38/22 A2950 RMK AO2 PK WND 12030/2048 SLP986 T03830217 56020
Presión 29.49 pul
Visibilidad 9.0 Millas
Nubes Despejado
Índice de calor 108 ° F
Punto de rocío 74 ° F
Humedad 48%
Precipitaciones 0.00 pul
Espesor de la nieve No disponible.
6:58 AM 8:04 PM
Creciente, 9% visible
METAR KMFE 282053Z 14017G30KT 9SM CLR 38/22 A2950 RMK AO2 PK WND 12030/2048 SLP986 T03830217 56020

Get Severe Weather Alerts

Thanks for signing up!

Be on the lookout for a verification email in your inbox.

You'll start receiving the daily forecast at 8 AM.

×

10-Day Weather Forecast

Almanac

Astronomía

Apr. 28, 2017 Salida Puesta
Hora real
Crepúsculo civil
Crepúsculo náutico
Crepúsculo astronómico
Luna
Horas de luz
Horas de luz
Tomorrow will be .
, % of the Moon is Illuminated

Extremos de hoy

Máximos del estado Bajos del estado

Community

WunderPhotos

WunderBlog® & News

Nearby

Calidad del aire

  Calidad del aire Índice AQ Contaminante
Not available.

Grosos de nieve

Estación Profundido Altura

Actividad de terremotos

Ciudad Distance Mag. Tiempo y dato
Magnitud mínima muestra es 2,5.

Temperaturas de aguas costeras

Lugar Temperatura

Stations

Estaciones meteorológicas cercanas

Ubicación de la estación Temp. Vientos helados Punto de rocío Humedad Viento Precip. Alt Actualizado Tipo
                   

Watches & Warnings

There are currently no watches in effect.